Time;durP1;ratioP1;P1;durP2;ratioP2;P2;SDS_P1;SDS_P2;PMS_P1;PMS_P2;Temp;Humidity;BMP_temperature;BMP_pressure;BME280_temperature;BME280_humidity;BME280_pressure;Samples;Min_cycle;Max_cycle;Signal;HPM_P1;HPM_P2
2022/04/27 00:01:50;;;;;;;5.17;3.97;;;6.20;99.90;;;;;;5042675;28;20217;-60
2022/04/27 00:04:18;;;;;;;6.77;4.37;;;6.10;99.90;;;;;;5027678;28;20239;-60
2022/04/27 00:06:45;;;;;;;5.33;3.80;;;6.10;99.90;;;;;;5025121;28;20225;-60
2022/04/27 00:09:12;;;;;;;13.53;5.87;;;6.00;99.90;;;;;;5043622;28;20288;-59
2022/04/27 00:11:41;;;;;;;16.77;7.30;;;5.90;99.90;;;;;;5015763;28;20740;-60
2022/04/27 00:14:07;;;;;;;13.80;5.27;;;5.80;99.90;;;;;;5019546;28;20581;-59
2022/04/27 00:16:34;;;;;;;10.00;5.83;;;5.90;99.90;;;;;;5037915;28;20207;-59
2022/04/27 00:19:02;;;;;;;12.57;5.27;;;6.10;99.90;;;;;;5026312;28;20205;-60
2022/04/27 00:21:29;;;;;;;16.20;5.23;;;6.10;99.90;;;;;;5014445;28;20213;-58
2022/04/27 00:23:56;;;;;;;14.33;6.03;;;6.30;99.90;;;;;;5022479;28;20197;-60
2022/04/27 00:26:23;;;;;;;8.83;5.13;;;6.30;99.90;;;;;;5051047;28;20811;-60
2022/04/27 00:28:52;;;;;;;10.93;5.63;;;6.40;99.90;;;;;;5022486;28;20211;-59
2022/04/27 00:31:19;;;;;;;10.63;5.00;;;6.40;99.90;;;;;;5033957;28;20685;-60
2022/04/27 00:33:46;;;;;;;5.97;4.73;;;6.50;99.90;;;;;;5035716;28;20201;-59
2022/04/27 00:36:13;;;;;;;4.27;3.40;;;6.50;99.90;;;;;;5021657;28;20217;-60
2022/04/27 00:38:40;;;;;;;4.27;2.63;;;6.30;99.90;;;;;;5034555;28;20205;-59
2022/04/27 00:41:07;;;;;;;3.40;3.00;;;6.00;99.90;;;;;;5041205;28;20651;-60
2022/04/27 00:43:42;;;;;;;4.77;3.60;;;5.90;99.90;;;;;;5030112;28;20202;-60
2022/04/27 00:46:10;;;;;;;3.57;3.27;;;5.90;99.90;;;;;;5018101;28;20243;-60
2022/04/27 00:48:39;;;;;;;6.27;3.37;;;5.80;99.90;;;;;;5039556;28;20205;-59
2022/04/27 00:51:07;;;;;;;3.20;2.90;;;5.70;99.90;;;;;;5019007;28;20322;-59
2022/04/27 00:53:37;;;;;;;3.13;2.83;;;5.60;99.90;;;;;;5031029;28;20210;-60
2022/04/27 00:56:05;;;;;;;5.77;2.83;;;5.60;99.90;;;;;;5038985;28;20268;-60
2022/04/27 00:58:31;;;;;;;7.03;3.40;;;5.50;99.90;;;;;;5041103;28;20222;-59
2022/04/27 01:00:58;;;;;;;4.57;3.37;;;5.50;99.90;;;;;;5035455;28;20316;-59
2022/04/27 01:03:27;;;;;;;3.93;3.00;;;5.50;99.90;;;;;;5029031;28;20231;-60
2022/04/27 01:05:54;;;;;;;3.90;3.50;;;5.60;99.90;;;;;;5032914;28;20244;-60
2022/04/27 01:08:22;;;;;;;5.13;3.37;;;5.60;99.90;;;;;;5014653;28;20254;-60
2022/04/27 01:10:49;;;;;;;8.43;3.80;;;5.60;99.90;;;;;;5059392;28;20280;-59
2022/04/27 01:13:17;;;;;;;3.80;3.40;;;5.60;99.90;;;;;;5030100;28;20203;-60
2022/04/27 01:15:44;;;;;;;5.27;4.20;;;5.60;99.90;;;;;;5034284;28;20205;-60
2022/04/27 01:18:11;;;;;;;6.90;3.57;;;5.60;99.90;;;;;;5047469;28;20205;-60
2022/04/27 01:20:44;;;;;;;8.10;4.23;;;5.60;99.90;;;;;;5034683;28;20743;-60
2022/04/27 01:23:12;;;;;;;7.60;4.67;;;5.50;99.90;;;;;;5033459;28;20770;-59
2022/04/27 01:25:54;;;;;;;6.43;4.47;;;5.40;99.90;;;;;;5054629;28;20235;-59
2022/04/27 01:28:23;;;;;;;8.07;5.57;;;5.50;99.90;;;;;;5058521;28;20200;-59
2022/04/27 01:30:57;;;;;;;8.20;5.57;;;5.40;99.90;;;;;;5062089;28;20299;-60
2022/04/27 01:33:24;;;;;;;9.43;5.70;;;5.40;99.90;;;;;;5041517;28;20204;-58
2022/04/27 01:35:53;;;;;;;11.30;5.67;;;5.50;99.90;;;;;;5035832;28;20220;-59
2022/04/27 01:38:20;;;;;;;10.40;5.47;;;5.40;99.90;;;;;;5030608;28;21041;-59
2022/04/27 01:40:47;;;;;;;14.67;6.43;;;5.50;99.90;;;;;;5051213;28;20291;-59
2022/04/27 01:43:15;;;;;;;11.80;6.10;;;5.60;99.90;;;;;;5043291;28;20212;-59
2022/04/27 01:45:44;;;;;;;9.27;5.93;;;5.60;99.90;;;;;;5057144;28;20228;-60
2022/04/27 01:48:12;;;;;;;7.00;5.57;;;5.80;99.90;;;;;;5020134;28;20204;-59
2022/04/27 01:50:39;;;;;;;12.87;6.10;;;5.80;99.90;;;;;;5040945;28;20656;-59
2022/04/27 01:55:52;;;;;;;14.97;6.07;;;5.70;99.90;;;;;;5048927;28;20235;-60
2022/04/27 01:58:20;;;;;;;10.47;6.00;;;5.70;99.90;;;;;;5023996;28;20821;-59
2022/04/27 02:00:47;;;;;;;7.93;6.13;;;5.60;99.90;;;;;;5050046;28;20202;-60
2022/04/27 02:03:15;;;;;;;8.53;5.60;;;5.60;99.90;;;;;;5039464;28;20223;-59
2022/04/27 02:05:42;;;;;;;9.50;5.83;;;5.60;99.90;;;;;;5020238;28;20232;-59
2022/04/27 02:08:11;;;;;;;9.43;5.60;;;5.60;99.90;;;;;;5024069;28;20628;-58
2022/04/27 02:10:38;;;;;;;10.10;5.77;;;5.60;99.90;;;;;;5040290;28;20660;-60
2022/04/27 02:13:06;;;;;;;10.57;5.83;;;5.50;99.90;;;;;;5025665;28;20201;-59
2022/04/27 02:15:34;;;;;;;8.57;5.83;;;5.50;99.90;;;;;;5029730;28;20236;-59
2022/04/27 02:18:01;;;;;;;6.13;5.03;;;5.60;99.90;;;;;;5047049;28;20206;-59
2022/04/27 02:20:30;;;;;;;7.07;5.53;;;5.50;99.90;;;;;;5016633;28;20197;-61
2022/04/27 02:22:57;;;;;;;10.60;5.20;;;5.40;99.90;;;;;;5025280;28;20213;-59
2022/04/27 02:25:25;;;;;;;7.07;4.90;;;5.50;99.90;;;;;;5010624;28;21033;-59
2022/04/27 02:27:52;;;;;;;9.73;5.17;;;5.50;99.90;;;;;;5053555;28;20687;-60
2022/04/27 02:30:20;;;;;;;9.37;5.63;;;5.50;99.90;;;;;;5038278;28;20201;-60
2022/04/27 02:32:47;;;;;;;6.80;4.70;;;5.40;99.90;;;;;;5051355;28;20210;-60
2022/04/27 02:35:15;;;;;;;7.67;5.60;;;5.30;99.90;;;;;;5026910;28;20708;-60
2022/04/27 02:37:42;;;;;;;8.37;4.90;;;5.40;99.90;;;;;;5036381;28;20923;-60
2022/04/27 02:40:10;;;;;;;5.63;4.70;;;5.40;99.90;;;;;;5019214;28;20207;-59
2022/04/27 02:42:38;;;;;;;6.97;4.70;;;5.20;99.90;;;;;;5024769;28;20294;-60
2022/04/27 02:45:06;;;;;;;6.50;5.07;;;5.10;99.90;;;;;;5016530;28;20236;-60
2022/04/27 02:47:33;;;;;;;6.83;4.63;;;5.10;99.90;;;;;;5042244;28;20204;-60
2022/04/27 02:52:40;;;;;;;7.23;4.57;;;4.90;99.90;;;;;;5023433;28;20215;-60
2022/04/27 02:55:08;;;;;;;5.57;4.80;;;4.80;99.90;;;;;;5009676;28;20263;-60
2022/04/27 02:57:35;;;;;;;6.93;5.47;;;4.50;99.90;;;;;;5028601;28;20200;-60
2022/04/27 03:00:05;;;;;;;5.20;4.43;;;4.30;99.90;;;;;;5034356;28;20841;-60
2022/04/27 03:02:31;;;;;;;4.37;3.97;;;4.20;99.90;;;;;;5039437;28;20199;-60
2022/04/27 03:05:00;;;;;;;4.80;4.20;;;4.10;99.90;;;;;;5033353;28;20206;-59
2022/04/27 03:07:28;;;;;;;4.90;4.13;;;4.20;99.90;;;;;;5048646;28;20224;-59
2022/04/27 03:09:55;;;;;;;5.83;4.20;;;4.10;99.90;;;;;;5018651;28;20198;-60
2022/04/27 03:12:22;;;;;;;3.67;3.27;;;4.00;99.90;;;;;;5033183;28;20219;-59
2022/04/27 03:14:49;;;;;;;3.93;3.33;;;3.90;99.90;;;;;;5044090;28;20209;-60
2022/04/27 03:17:17;;;;;;;3.83;3.53;;;3.90;99.90;;;;;;5033836;28;20220;-59
2022/04/27 03:19:44;;;;;;;4.33;3.93;;;3.90;99.90;;;;;;5033417;28;20197;-59
2022/04/27 03:22:11;;;;;;;4.13;3.70;;;3.80;99.90;;;;;;5042738;28;20309;-59
2022/04/27 03:24:38;;;;;;;5.93;3.97;;;3.70;99.90;;;;;;5020241;28;20744;-59
2022/04/27 03:27:06;;;;;;;5.10;4.03;;;3.70;99.90;;;;;;5051130;28;20323;-59
2022/04/27 03:29:33;;;;;;;4.90;4.00;;;3.60;99.90;;;;;;5027286;28;20230;-59
2022/04/27 03:31:59;;;;;;;4.10;3.70;;;3.70;99.90;;;;;;5031486;28;20590;-59
2022/04/27 03:34:28;;;;;;;5.33;4.33;;;3.70;99.90;;;;;;5050319;28;20203;-59
2022/04/27 03:36:55;;;;;;;7.07;4.50;;;3.60;99.90;;;;;;5016636;28;20211;-59
2022/04/27 03:39:22;;;;;;;4.67;4.23;;;3.60;99.90;;;;;;5044461;28;20203;-59
2022/04/27 03:41:48;;;;;;;4.63;4.23;;;3.60;99.90;;;;;;5017504;28;20858;-59
2022/04/27 03:44:15;;;;;;;4.90;4.13;;;3.60;99.90;;;;;;5017006;28;20224;-59
2022/04/27 03:46:42;;;;;;;5.67;4.57;;;3.70;99.90;;;;;;5040815;28;20314;-59
2022/04/27 03:49:09;;;;;;;8.00;4.20;;;3.80;99.90;;;;;;5045750;28;21086;-57
2022/04/27 03:51:37;;;;;;;6.03;4.67;;;3.80;99.90;;;;;;5026097;28;20288;-59
2022/04/27 03:54:04;;;;;;;7.43;4.77;;;3.80;99.90;;;;;;5034215;28;20300;-59
2022/04/27 03:56:32;;;;;;;6.43;4.50;;;3.90;99.90;;;;;;4999778;28;20711;-59
2022/04/27 03:58:59;;;;;;;8.93;5.13;;;4.00;99.90;;;;;;5049459;28;20576;-60
2022/04/27 04:01:26;;;;;;;7.50;4.37;;;4.00;99.90;;;;;;5016706;28;20235;-59
2022/04/27 04:03:55;;;;;;;6.87;4.97;;;4.10;99.90;;;;;;5029685;28;20206;-59
2022/04/27 04:06:22;;;;;;;6.60;4.93;;;4.10;99.90;;;;;;5038254;28;20229;-59
2022/04/27 04:08:50;;;;;;;4.77;3.90;;;4.10;99.90;;;;;;5023841;28;20743;-60
2022/04/27 04:11:19;;;;;;;5.80;4.10;;;4.20;99.90;;;;;;5044796;28;20228;-59
2022/04/27 04:13:46;;;;;;;6.43;4.50;;;4.10;99.90;;;;;;5050114;28;20908;-59
2022/04/27 04:16:13;;;;;;;6.07;4.73;;;4.10;99.90;;;;;;5034172;28;20233;-60
2022/04/27 04:18:41;;;;;;;6.23;4.10;;;4.00;99.90;;;;;;5024101;28;21215;-59
2022/04/27 04:21:08;;;;;;;7.77;4.57;;;4.00;99.90;;;;;;5031894;28;20251;-59
2022/04/27 04:23:35;;;;;;;5.43;4.83;;;4.00;99.90;;;;;;4998320;28;20229;-60
2022/04/27 04:28:48;;;;;;;6.87;5.40;;;3.90;99.90;;;;;;5022062;28;20296;-61
2022/04/27 04:31:17;;;;;;;9.57;5.77;;;3.80;99.90;;;;;;5017372;28;20217;-60
2022/04/27 04:33:44;;;;;;;8.43;6.67;;;3.70;99.90;;;;;;5033717;28;21094;-60
2022/04/27 04:36:12;;;;;;;11.10;7.50;;;3.80;99.90;;;;;;5029955;28;20243;-61
2022/04/27 04:38:39;;;;;;;16.37;8.33;;;3.70;99.90;;;;;;5016365;28;20231;-61
2022/04/27 04:41:07;;;;;;;15.30;8.37;;;3.60;99.90;;;;;;4991783;28;20228;-60
2022/04/27 04:43:34;;;;;;;16.20;8.23;;;3.60;99.90;;;;;;5023292;28;20284;-60
2022/04/27 04:46:02;;;;;;;16.43;8.47;;;3.60;99.90;;;;;;5026071;28;21120;-61
2022/04/27 04:48:29;;;;;;;13.27;8.40;;;3.80;99.90;;;;;;4996539;28;20324;-60
2022/04/27 04:50:56;;;;;;;14.23;7.13;;;3.90;99.90;;;;;;5034947;28;20227;-64
2022/04/27 04:53:23;;;;;;;12.53;7.90;;;3.90;99.90;;;;;;5014721;28;20234;-60
2022/04/27 04:55:50;;;;;;;13.80;8.20;;;3.70;99.90;;;;;;5032433;28;20227;-61
2022/04/27 04:58:18;;;;;;;16.30;7.67;;;3.70;99.90;;;;;;5031966;28;20726;-58
2022/04/27 05:00:48;;;;;;;12.07;7.57;;;3.70;99.90;;;;;;5021525;28;20908;-61
2022/04/27 05:03:15;;;;;;;10.63;7.33;;;3.80;99.90;;;;;;4996003;28;20217;-61
2022/04/27 05:05:42;;;;;;;11.73;7.80;;;3.80;99.90;;;;;;5033350;28;20192;-60
2022/04/27 05:08:10;;;;;;;12.07;8.33;;;3.90;99.90;;;;;;5028993;28;20223;-61
2022/04/27 05:10:37;;;;;;;9.87;7.90;;;4.00;99.90;;;;;;5030932;28;20223;-61
2022/04/27 05:13:04;;;;;;;12.17;8.60;;;4.10;99.90;;;;;;5015780;28;20284;-59
2022/04/27 05:15:32;;;;;;;12.10;8.13;;;4.30;99.90;;;;;;5014949;28;20239;-59
2022/04/27 05:17:59;;;;;;;10.70;8.20;;;4.30;99.90;;;;;;5011664;28;20857;-58
2022/04/27 05:20:27;;;;;;;12.43;8.47;;;4.30;99.90;;;;;;5037885;28;20204;-59
2022/04/27 05:22:54;;;;;;;11.83;7.77;;;4.50;99.90;;;;;;5013412;28;20224;-60
2022/04/27 05:25:21;;;;;;;11.67;8.57;;;4.60;99.90;;;;;;5032368;28;20335;-59
2022/04/27 05:27:49;;;;;;;11.47;8.77;;;4.70;99.90;;;;;;5026597;28;20270;-59
2022/04/27 05:33:01;;;;;;;12.60;8.93;;;4.90;99.90;;;;;;5030093;28;21727;-59
2022/04/27 05:35:28;;;;;;;11.40;8.20;;;5.10;99.90;;;;;;5044147;28;20589;-59
2022/04/27 05:37:55;;;;;;;13.93;7.77;;;5.20;99.90;;;;;;5045067;28;20196;-59
2022/04/27 05:40:25;;;;;;;13.47;8.73;;;5.30;99.90;;;;;;5050416;28;20231;-59
2022/04/27 05:42:52;;;;;;;15.17;8.63;;;5.40;99.90;;;;;;5037986;28;20201;-60
2022/04/27 05:45:19;;;;;;;11.90;8.23;;;5.60;99.90;;;;;;5039433;28;20247;-59
2022/04/27 05:47:46;;;;;;;10.33;7.50;;;5.70;99.90;;;;;;5047445;28;20317;-59
2022/04/27 05:50:14;;;;;;;10.53;7.37;;;5.90;99.90;;;;;;5034836;28;21048;-59
2022/04/27 05:52:52;;;;;;;12.87;7.83;;;6.00;99.90;;;;;;5049744;28;20203;-59
2022/04/27 05:55:19;;;;;;;12.63;7.43;;;6.20;99.90;;;;;;5048076;28;20573;-60
2022/04/27 05:57:46;;;;;;;8.70;6.43;;;6.30;99.90;;;;;;5049283;28;20677;-61
2022/04/27 06:00:14;;;;;;;12.20;7.40;;;6.50;99.90;;;;;;5035840;28;20215;-59
2022/04/27 06:02:41;;;;;;;12.67;6.87;;;6.70;99.90;;;;;;5047653;28;20664;-60
2022/04/27 06:05:09;;;;;;;11.77;6.90;;;6.80;99.90;;;;;;5035504;28;20751;-60
2022/04/27 06:07:37;;;;;;;14.23;6.10;;;7.10;99.90;;;;;;5054809;28;20229;-59
2022/04/27 06:10:05;;;;;;;8.87;6.67;;;7.30;99.90;;;;;;5051552;28;22019;-59
2022/04/27 06:12:36;;;;;;;8.67;5.93;;;7.40;99.90;;;;;;5050308;28;20207;-60
2022/04/27 06:15:03;;;;;;;15.37;6.47;;;7.60;99.90;;;;;;5031291;28;20541;-60
2022/04/27 06:17:30;;;;;;;11.00;6.53;;;7.70;99.90;;;;;;5044598;28;20218;-60
2022/04/27 06:19:58;;;;;;;9.33;6.70;;;7.80;99.90;;;;;;5051478;28;20219;-59
2022/04/27 06:22:24;;;;;;;11.87;6.70;;;7.80;99.90;;;;;;5037242;28;20574;-60
2022/04/27 06:24:53;;;;;;;9.73;6.13;;;7.90;99.90;;;;;;5056781;28;20213;-60
2022/04/27 06:27:19;;;;;;;9.03;6.50;;;8.00;99.90;;;;;;5047818;28;20231;-59
2022/04/27 06:29:46;;;;;;;15.43;6.40;;;8.10;99.90;;;;;;5047320;28;20298;-60
2022/04/27 06:32:13;;;;;;;9.33;6.10;;;8.20;99.90;;;;;;5042560;28;20226;-59
2022/04/27 06:34:40;;;;;;;12.90;7.20;;;8.30;99.90;;;;;;5058092;28;20303;-60
2022/04/27 06:37:07;;;;;;;13.50;5.70;;;8.20;99.90;;;;;;5038172;28;20205;-59
2022/04/27 06:39:34;;;;;;;8.73;5.40;;;8.20;99.90;;;;;;5053834;28;20205;-60
2022/04/27 06:42:02;;;;;;;10.07;5.83;;;8.20;99.90;;;;;;5051544;28;20201;-60
2022/04/27 06:44:29;;;;;;;12.23;6.37;;;8.20;99.90;;;;;;5043920;28;20209;-60
2022/04/27 06:46:56;;;;;;;6.63;5.47;;;8.30;99.90;;;;;;5048352;28;20243;-59
2022/04/27 06:49:22;;;;;;;7.90;5.40;;;8.30;99.90;;;;;;5048569;28;20254;-60
2022/04/27 06:51:49;;;;;;;8.00;5.20;;;8.30;99.90;;;;;;5039074;28;20983;-60
2022/04/27 06:54:16;;;;;;;9.33;5.23;;;8.30;99.90;;;;;;5054838;28;20291;-60
2022/04/27 06:56:43;;;;;;;9.60;5.37;;;8.40;99.90;;;;;;5065626;28;20208;-59
2022/04/27 06:59:11;;;;;;;7.97;5.57;;;8.40;99.90;;;;;;5070782;28;20204;-60
2022/04/27 07:01:38;;;;;;;6.97;4.93;;;8.40;99.90;;;;;;5052075;28;20255;-59
2022/04/27 07:04:09;;;;;;;8.80;4.97;;;8.40;99.90;;;;;;5045189;28;20197;-60
2022/04/27 07:06:36;;;;;;;7.50;5.47;;;8.30;99.90;;;;;;5039169;28;20761;-60
2022/04/27 07:09:04;;;;;;;9.33;5.00;;;8.30;99.90;;;;;;5049645;28;20259;-59
2022/04/27 07:11:30;;;;;;;7.63;4.60;;;8.40;99.90;;;;;;5053345;28;20215;-60
2022/04/27 07:13:57;;;;;;;6.60;4.40;;;8.40;99.90;;;;;;5044171;28;24048;-60
2022/04/27 07:16:26;;;;;;;5.00;4.23;;;8.30;99.90;;;;;;5055279;28;20197;-61
2022/04/27 07:18:53;;;;;;;8.13;3.70;;;8.40;99.90;;;;;;5046647;28;21660;-60
2022/04/27 07:21:20;;;;;;;6.87;3.60;;;8.50;99.90;;;;;;5055493;28;20204;-60
2022/04/27 07:23:47;;;;;;;6.73;4.20;;;8.60;99.90;;;;;;5033369;28;20849;-60
2022/04/27 07:26:14;;;;;;;5.87;3.20;;;8.80;99.90;;;;;;5054751;28;20205;-59
2022/04/27 07:28:42;;;;;;;9.70;4.10;;;8.80;99.90;;;;;;5057942;28;20193;-60
2022/04/27 07:31:09;;;;;;;6.37;3.53;;;8.90;99.90;;;;;;5042336;28;20730;-60
2022/04/27 07:33:37;;;;;;;8.40;3.50;;;9.00;99.90;;;;;;5047476;28;20227;-60
2022/04/27 07:36:06;;;;;;;3.40;2.80;;;9.10;99.90;;;;;;5055926;28;20205;-61
2022/04/27 07:38:33;;;;;;;7.37;2.30;;;9.10;99.90;;;;;;5036458;28;20221;-60
2022/04/27 07:41:00;;;;;;;5.27;2.10;;;9.00;99.90;;;;;;5054195;28;20605;-60
2022/04/27 07:43:27;;;;;;;2.90;1.93;;;9.00;99.90;;;;;;5049593;28;20211;-60
2022/04/27 07:45:54;;;;;;;3.77;1.80;;;9.00;99.90;;;;;;5040422;28;21040;-60
2022/04/27 07:48:21;;;;;;;3.83;2.07;;;9.00;99.90;;;;;;5045187;28;20236;-60
2022/04/27 07:50:49;;;;;;;3.93;2.30;;;9.10;99.90;;;;;;5049820;28;20296;-60
2022/04/27 07:53:16;;;;;;;3.47;2.07;;;9.10;99.90;;;;;;5053716;28;20207;-60
2022/04/27 07:55:43;;;;;;;4.53;1.97;;;9.10;99.90;;;;;;5038111;28;21057;-60
2022/04/27 07:58:10;;;;;;;7.53;1.60;;;9.10;99.90;;;;;;5055359;28;20196;-60
2022/04/27 08:00:37;;;;;;;2.87;1.90;;;9.10;99.90;;;;;;5042885;28;20208;-59
2022/04/27 08:03:03;;;;;;;6.83;1.93;;;9.10;99.90;;;;;;5041981;28;20203;-60
2022/04/27 08:05:31;;;;;;;3.50;1.80;;;9.10;99.90;;;;;;5051625;28;20207;-60
2022/04/27 08:07:59;;;;;;;2.67;1.77;;;9.00;99.90;;;;;;5052901;28;20260;-60
2022/04/27 08:10:26;;;;;;;4.20;1.73;;;9.00;99.90;;;;;;5031363;28;20212;-60
2022/04/27 08:12:53;;;;;;;4.33;1.80;;;9.00;99.90;;;;;;5045167;28;21487;-60
2022/04/27 08:15:21;;;;;;;2.77;1.90;;;9.10;99.90;;;;;;5059325;28;20203;-61
2022/04/27 08:17:53;;;;;;;5.07;1.70;;;9.20;99.90;;;;;;5034997;28;20247;-60
2022/04/27 08:23:09;;;;;;;3.63;2.10;;;9.60;99.90;;;;;;5053705;28;20215;-60
2022/04/27 08:25:36;;;;;;;8.23;2.30;;;9.80;99.90;;;;;;5036765;28;20774;-60
2022/04/27 08:28:06;;;;;;;3.30;2.00;;;9.90;99.90;;;;;;5048926;28;20228;-60
2022/04/27 08:30:33;;;;;;;2.53;2.00;;;10.00;99.90;;;;;;5050470;28;20227;-60
2022/04/27 08:33:00;;;;;;;4.00;2.17;;;10.00;99.90;;;;;;5031483;28;20207;-60
2022/04/27 08:35:27;;;;;;;4.50;2.50;;;10.00;99.90;;;;;;5053438;28;20232;-60
2022/04/27 08:37:54;;;;;;;4.60;2.37;;;10.00;99.90;;;;;;5052282;28;20216;-59
2022/04/27 08:40:24;;;;;;;5.73;2.10;;;9.90;99.90;;;;;;5038059;28;20361;-61
2022/04/27 08:42:51;;;;;;;5.13;2.93;;;9.80;99.90;;;;;;5038252;28;20209;-59
2022/04/27 08:45:19;;;;;;;2.20;1.80;;;9.70;99.90;;;;;;5053262;28;20201;-59
2022/04/27 08:47:47;;;;;;;4.83;2.23;;;9.70;99.90;;;;;;5042868;28;20231;-60
2022/04/27 08:50:15;;;;;;;4.53;2.43;;;9.80;99.90;;;;;;5043456;28;20201;-60
2022/04/27 08:52:43;;;;;;;5.20;2.30;;;9.80;99.90;;;;;;5054954;28;20193;-60
2022/04/27 08:55:11;;;;;;;4.40;2.63;;;9.80;99.90;;;;;;5037297;28;20208;-60
2022/04/27 08:57:40;;;;;;;2.40;1.80;;;9.90;99.90;;;;;;5055949;28;20203;-60
2022/04/27 09:00:09;;;;;;;3.87;2.23;;;9.90;99.90;;;;;;5050653;28;20197;-60
2022/04/27 09:02:36;;;;;;;2.57;2.10;;;10.00;99.90;;;;;;5050541;28;20197;-60
2022/04/27 09:05:08;;;;;;;2.60;2.00;;;10.00;99.90;;;;;;5037228;28;20211;-60
2022/04/27 09:07:42;;;;;;;4.83;2.57;;;10.00;99.90;;;;;;5058822;28;20219;-59
2022/04/27 09:10:10;;;;;;;3.40;2.07;;;10.00;99.90;;;;;;5050732;28;21077;-59
2022/04/27 09:12:45;;;;;;;3.20;2.03;;;10.00;99.90;;;;;;5037379;28;20781;-60
2022/04/27 09:15:14;;;;;;;5.37;1.80;;;10.00;99.90;;;;;;5053448;28;20664;-60
2022/04/27 09:23:22;;;;;;;3.60;2.37;;;9.90;99.90;;;;;;5046193;28;20281;-59
2022/04/27 09:25:51;;;;;;;4.60;2.07;;;10.10;99.90;;;;;;5053167;28;20323;-60
2022/04/27 09:28:23;;;;;;;6.47;2.57;;;10.40;99.90;;;;;;5040307;28;20217;-60
2022/04/27 09:30:50;;;;;;;2.20;2.00;;;10.50;99.90;;;;;;5057194;28;20227;-60
2022/04/27 09:33:35;;;;;;;4.27;2.00;;;10.50;99.90;;;;;;5054032;28;21098;-60
2022/04/27 09:36:02;;;;;;;2.50;2.10;;;10.60;99.90;;;;;;5045587;28;20198;-58
2022/04/27 09:38:40;;;;;;;3.47;2.23;;;10.60;99.90;;;;;;5076096;28;20212;-60
2022/04/27 09:41:06;;;;;;;6.63;2.00;;;10.40;99.90;;;;;;5057521;28;20671;-60
2022/04/27 09:43:44;;;;;;;3.60;2.00;;;10.40;99.90;;;;;;5032740;28;20336;-59
2022/04/27 09:46:20;;;;;;;1.80;1.70;;;10.30;99.90;;;;;;5054561;28;20200;-61
2022/04/27 09:48:47;;;;;;;4.80;2.43;;;10.30;99.90;;;;;;5044242;28;20300;-60
2022/04/27 09:51:14;;;;;;;2.67;1.93;;;10.40;99.90;;;;;;5048435;28;20209;-59
2022/04/27 09:53:43;;;;;;;3.80;2.37;;;10.40;99.90;;;;;;5057795;28;20290;-60
2022/04/27 09:56:12;;;;;;;5.53;2.50;;;10.60;99.90;;;;;;5056278;28;20209;-59
2022/04/27 09:58:44;;;;;;;2.73;1.90;;;10.80;99.90;;;;;;5040873;28;20209;-60
2022/04/27 10:01:14;;;;;;;2.73;1.70;;;10.70;99.90;;;;;;5057111;28;20204;-60
2022/04/27 10:03:42;;;;;;;4.77;2.27;;;10.60;99.90;;;;;;5052431;28;20197;-59
2022/04/27 10:06:09;;;;;;;2.37;1.87;;;10.70;99.90;;;;;;5043912;28;20667;-60
2022/04/27 10:08:39;;;;;;;5.70;2.30;;;10.70;99.90;;;;;;5048469;28;20320;-62
2022/04/27 10:11:07;;;;;;;5.23;2.00;;;10.70;99.90;;;;;;5041695;28;20205;-60
2022/04/27 10:13:34;;;;;;;2.67;2.10;;;10.80;99.90;;;;;;5042250;28;20211;-59
2022/04/27 10:16:02;;;;;;;4.00;2.10;;;11.00;99.90;;;;;;5047650;28;20219;-60
2022/04/27 10:18:31;;;;;;;1.70;1.60;;;11.10;99.90;;;;;;5058909;28;20215;-59
2022/04/27 10:20:59;;;;;;;2.33;1.65;;;11.10;99.90;;;;;;5041000;28;20244;-59
2022/04/27 10:23:31;;;;;;;3.25;2.22;;;11.00;99.90;;;;;;5046514;28;20302;-59
2022/04/27 10:26:17;;;;;;;4.87;2.33;;;10.80;99.90;;;;;;5056770;28;20675;-60
2022/04/27 10:28:47;;;;;;;7.37;2.63;;;10.70;99.90;;;;;;5054547;28;20582;-60
2022/04/27 10:32:05;;;;;;;4.23;2.60;;;10.60;99.90;;;;;;5038000;28;20266;-60
2022/04/27 10:34:34;;;;;;;12.07;2.73;;;10.70;99.90;;;;;;5035042;28;20225;-60
2022/04/27 10:37:03;;;;;;;5.73;2.17;;;10.70;99.90;;;;;;5035493;28;20488;-61
2022/04/27 10:39:31;;;;;;;4.10;2.20;;;10.80;99.90;;;;;;5059573;28;20558;-61
2022/04/27 10:42:34;;;;;;;3.00;2.00;;;11.10;99.90;;;;;;5052985;28;20721;-60
2022/04/27 10:45:12;;;;;;;3.42;2.15;;;11.20;99.90;;;;;;5038704;28;20215;-60
2022/04/27 10:47:43;;;;;;;3.83;1.77;;;11.40;99.90;;;;;;5041234;28;20232;-61
2022/04/27 10:50:28;;;;;;;5.50;2.33;;;11.60;99.90;;;;;;5054164;28;20200;-61
2022/04/27 10:52:56;;;;;;;2.03;1.85;;;11.60;99.90;;;;;;5036298;28;20227;-62
2022/04/27 10:55:54;;;;;;;4.13;1.73;;;11.80;99.90;;;;;;5057957;28;20231;-61
2022/04/27 10:58:42;;;;;;;6.63;3.08;;;11.80;99.90;;;;;;4996121;28;20264;-60
2022/04/27 11:01:31;;;;;;;5.95;2.10;;;11.90;99.90;;;;;;5035113;28;20281;-61
2022/04/27 11:04:11;;;;;;;8.05;2.47;;;11.80;99.90;;;;;;5052762;28;20229;-61
2022/04/27 11:07:26;;;;;;;2.67;2.20;;;11.80;99.90;;;;;;5052803;28;20196;-60
2022/04/27 11:10:10;;;;;;;3.97;2.38;;;11.70;99.90;;;;;;5037738;28;20715;-60
2022/04/27 11:12:38;;;;;;;10.57;2.28;;;11.70;99.90;;;;;;5057637;28;20247;-61
2022/04/27 11:15:06;;;;;;;10.27;2.40;;;11.70;99.90;;;;;;5052824;28;20203;-61
2022/04/27 11:17:34;;;;;;;2.85;2.05;;;11.70;99.90;;;;;;5040877;28;20665;-60
2022/04/27 11:20:02;;;;;;;3.47;2.15;;;11.70;99.90;;;;;;5053097;28;20273;-61
2022/04/27 11:22:38;;;;;;;2.70;2.00;;;11.70;99.90;;;;;;5042586;28;20324;-60
2022/04/27 11:25:07;;;;;;;4.10;2.45;;;11.70;99.90;;;;;;5028318;28;20204;-60
2022/04/27 11:27:36;;;;;;;2.78;2.13;;;11.60;99.90;;;;;;5057463;28;20198;-60
2022/04/27 11:30:06;;;;;;;4.45;2.53;;;11.70;99.90;;;;;;5051731;28;20235;-60
2022/04/27 11:32:33;;;;;;;2.92;2.35;;;11.80;99.90;;;;;;5035822;28;20703;-61
2022/04/27 11:35:00;;;;;;;3.25;2.25;;;11.70;99.90;;;;;;5055610;28;20254;-60
2022/04/27 11:37:27;;;;;;;3.42;2.55;;;11.60;99.90;;;;;;5045263;28;21131;-61
2022/04/27 11:40:12;;;;;;;4.45;2.58;;;11.50;99.90;;;;;;5055027;28;20822;-60
2022/04/27 11:42:42;;;;;;;5.88;2.58;;;11.40;99.90;;;;;;5046828;28;20710;-60
2022/04/27 11:45:11;;;;;;;4.80;2.90;;;11.30;99.90;;;;;;5043711;28;20703;-60
2022/04/27 11:47:38;;;;;;;4.97;2.97;;;11.50;99.90;;;;;;5017810;28;22876;-60
2022/04/27 11:50:06;;;;;;;4.30;2.70;;;11.50;99.90;;;;;;5037747;28;20208;-60
2022/04/27 11:52:36;;;;;;;5.53;2.75;;;11.40;99.90;;;;;;5048386;28;20220;-60
2022/04/27 11:55:09;;;;;;;5.10;2.58;;;11.70;99.90;;;;;;5033979;28;20198;-60
2022/04/27 11:57:38;;;;;;;4.15;2.80;;;11.80;99.90;;;;;;5043546;28;20719;-60
2022/04/27 12:00:06;;;;;;;5.40;2.75;;;11.70;99.90;;;;;;5049091;28;20294;-61
2022/04/27 12:02:34;;;;;;;8.52;2.50;;;11.70;99.90;;;;;;5016832;28;20205;-61
2022/04/27 12:05:02;;;;;;;3.33;2.65;;;11.80;99.90;;;;;;5039574;28;20579;-60
2022/04/27 12:07:35;;;;;;;3.08;2.53;;;11.90;99.90;;;;;;5040231;28;20201;-60
2022/04/27 12:10:05;;;;;;;10.27;2.75;;;11.90;99.90;;;;;;5040783;28;20231;-60
2022/04/27 12:12:33;;;;;;;6.30;3.13;;;11.80;99.90;;;;;;5035395;28;20221;-60
2022/04/27 12:15:07;;;;;;;4.57;2.90;;;11.90;99.90;;;;;;5053327;28;20695;-60
2022/04/27 12:17:50;;;;;;;5.22;2.90;;;11.90;99.90;;;;;;5054234;28;20229;-61
2022/04/27 12:20:37;;;;;;;5.82;2.92;;;12.00;99.90;;;;;;5046796;28;20208;-62
2022/04/27 12:23:06;;;;;;;7.88;3.42;;;11.80;99.90;;;;;;5047322;28;21076;-60
2022/04/27 12:25:41;;;;;;;2.70;2.50;;;11.80;99.90;;;;;;5033950;28;20707;-61
2022/04/27 12:28:11;;;;;;;4.57;2.67;;;12.00;99.90;;;;;;5036649;28;20235;-60
2022/04/27 12:30:49;;;;;;;4.47;3.22;;;12.00;99.90;;;;;;5043574;28;20221;-60
2022/04/27 12:33:16;;;;;;;5.60;2.97;;;12.10;99.90;;;;;;5050521;28;20217;-60
2022/04/27 12:38:30;;;;;;;4.28;2.95;;;11.90;99.90;;;;;;5009537;28;24070;-61
2022/04/27 12:41:00;;;;;;;4.68;2.90;;;11.90;99.90;;;;;;5016312;28;20225;-60
2022/04/27 12:43:28;;;;;;;3.03;2.72;;;12.00;99.90;;;;;;5016365;28;20232;-60
2022/04/27 12:46:10;;;;;;;5.88;3.25;;;12.10;99.90;;;;;;5021613;28;20299;-60
2022/04/27 12:48:38;;;;;;;3.25;2.92;;;12.10;99.90;;;;;;5038932;28;20314;-60
2022/04/27 12:51:08;;;;;;;6.57;2.88;;;12.20;99.90;;;;;;5010386;28;20442;-60
2022/04/27 12:53:37;;;;;;;5.90;3.00;;;12.20;99.90;;;;;;5031189;28;20233;-60
2022/04/27 12:56:08;;;;;;;6.82;2.95;;;12.20;99.90;;;;;;5031665;28;21028;-61
2022/04/27 12:58:36;;;;;;;4.22;3.00;;;12.30;99.90;;;;;;5017336;28;20583;-59
2022/04/27 13:01:03;;;;;;;5.45;3.58;;;12.40;99.90;;;;;;5042306;28;20226;-61
2022/04/27 13:03:30;;;;;;;9.13;3.33;;;12.30;99.90;;;;;;5026876;28;20197;-60
2022/04/27 13:05:58;;;;;;;3.53;2.85;;;12.20;99.90;;;;;;5026557;28;20215;-61
2022/04/27 13:08:25;;;;;;;9.73;2.83;;;12.00;99.90;;;;;;5016586;28;21248;-60
2022/04/27 13:13:37;;;;;;;4.18;2.88;;;12.00;99.90;;;;;;5030067;28;20216;-60
2022/04/27 13:16:05;;;;;;;5.32;3.08;;;12.10;99.90;;;;;;5031979;28;20698;-60
2022/04/27 13:18:32;;;;;;;5.88;3.28;;;12.20;99.90;;;;;;5042496;28;20225;-60
2022/04/27 13:21:00;;;;;;;7.78;2.95;;;12.10;99.90;;;;;;5007011;28;20215;-60
2022/04/27 13:23:27;;;;;;;6.15;3.72;;;12.20;99.90;;;;;;5033369;28;20205;-60
2022/04/27 13:25:54;;;;;;;5.75;3.25;;;12.20;99.90;;;;;;5023934;28;20221;-60